Penryn, Pennsylvania
Current Conditions -  °F | °C
As of 12:53 AM on Saturday 20 Dec 2014 (Local Time) from KLNS Reporting Station
Overcast Overcast  
Wind Chill: 22°   Ceiling: 3800
Heat Index: 30°   Visibility: 10mi
Dew Point: 21°   Wind: 8mph
Humidity: 69%   Direction: 280°W
Pressure: 30.19"   Gusts: NA
Location:  40.2°N, 76.37°W
Report Text: KLNS 200553Z 28007KT 10SM OVC038 M01/M06 A3019 RMK AO2 SLP227 T10111061 10000 21028 58004
Loading
Personal Weather Stations






























Interactive Weather Map New forecast layout! Learn more

10-Day Weather Forecast

Advertisements
Track Severe Weather on mobile